sensor_id;sensor_type;location;lat;lon;timestamp;pressure;altitude;pressure_sealevel;temperature;humidity
596;BME280;19946;49.306;11.350;2023-04-15T00:11:22;95346.69;;;3.02;100.00
596;BME280;19946;49.306;11.350;2023-04-15T00:14:24;95341.22;;;3.07;100.00
596;BME280;19946;49.306;11.350;2023-04-15T00:17:25;95332.72;;;3.06;100.00
596;BME280;19946;49.306;11.350;2023-04-15T00:20:27;95332.50;;;3.09;100.00
596;BME280;19946;49.306;11.350;2023-04-15T00:23:29;95315.75;;;3.05;100.00
596;BME280;19946;49.306;11.350;2023-04-15T00:26:29;95303.53;;;2.98;100.00
596;BME280;19946;49.306;11.350;2023-04-15T00:29:30;95315.88;;;3.15;100.00
596;BME280;19946;49.306;11.350;2023-04-15T00:32:30;95298.78;;;3.04;100.00
596;BME280;19946;49.306;11.350;2023-04-15T00:35:31;95314.03;;;3.17;100.00
596;BME280;19946;49.306;11.350;2023-04-15T00:38:32;95294.47;;;3.05;100.00
596;BME280;19946;49.306;11.350;2023-04-15T00:41:32;95293.53;;;3.06;100.00
596;BME280;19946;49.306;11.350;2023-04-15T00:44:33;95301.75;;;3.22;100.00
596;BME280;19946;49.306;11.350;2023-04-15T00:47:35;95297.75;;;3.18;100.00
596;BME280;19946;49.306;11.350;2023-04-15T00:50:36;95304.41;;;3.20;100.00
596;BME280;19946;49.306;11.350;2023-04-15T01:03:34;95298.47;;;3.20;100.00
596;BME280;19946;49.306;11.350;2023-04-15T01:06:35;95223.84;;;2.69;100.00
596;BME280;19946;49.306;11.350;2023-04-15T01:09:38;95178.38;;;2.61;100.00
596;BME280;19946;49.306;11.350;2023-04-15T01:12:38;95177.72;;;2.59;100.00
596;BME280;19946;49.306;11.350;2023-04-15T01:15:41;95283.47;;;3.26;100.00
596;BME280;19946;49.306;11.350;2023-04-15T01:18:43;95270.69;;;3.26;100.00
596;BME280;19946;49.306;11.350;2023-04-15T01:21:45;95247.75;;;3.25;100.00
596;BME280;19946;49.306;11.350;2023-04-15T01:24:54;95180.16;;;2.83;100.00
596;BME280;19946;49.306;11.350;2023-04-15T01:27:56;95187.03;;;2.82;100.00
596;BME280;19946;49.306;11.350;2023-04-15T01:31:11;95214.50;;;3.03;100.00
596;BME280;19946;49.306;11.350;2023-04-15T01:34:57;95276.06;;;3.46;100.00
596;BME280;19946;49.306;11.350;2023-04-15T01:38:08;95268.50;;;3.44;100.00
596;BME280;19946;49.306;11.350;2023-04-15T01:41:12;95154.09;;;2.55;100.00
596;BME280;19946;49.306;11.350;2023-04-15T01:44:13;95197.53;;;2.90;100.00
596;BME280;19946;49.306;11.350;2023-04-15T01:47:15;95181.91;;;2.82;100.00
596;BME280;19946;49.306;11.350;2023-04-15T02:03:47;95188.22;;;3.01;100.00
596;BME280;19946;49.306;11.350;2023-04-15T02:07:08;95275.59;;;3.52;100.00
596;BME280;19946;49.306;11.350;2023-04-15T02:10:09;95172.38;;;2.84;100.00
596;BME280;19946;49.306;11.350;2023-04-15T02:13:13;95169.63;;;2.87;100.00
596;BME280;19946;49.306;11.350;2023-04-15T02:16:18;95132.06;;;2.66;100.00
596;BME280;19946;49.306;11.350;2023-04-15T02:19:22;95196.47;;;3.04;100.00
596;BME280;19946;49.306;11.350;2023-04-15T02:22:23;95187.97;;;3.04;100.00
596;BME280;19946;49.306;11.350;2023-04-15T02:25:32;95156.59;;;2.79;100.00
596;BME280;19946;49.306;11.350;2023-04-15T02:28:34;95257.91;;;3.49;100.00
596;BME280;19946;49.306;11.350;2023-04-15T02:31:36;95157.41;;;2.80;100.00
596;BME280;19946;49.306;11.350;2023-04-15T02:34:46;95227.06;;;3.28;100.00
596;BME280;19946;49.306;11.350;2023-04-15T02:37:47;95127.28;;;2.61;100.00
596;BME280;19946;49.306;11.350;2023-04-15T02:40:48;95156.81;;;2.76;100.00
596;BME280;19946;49.306;11.350;2023-04-15T02:43:50;95236.28;;;3.30;100.00
596;BME280;19946;49.306;11.350;2023-04-15T02:46:52;95142.16;;;2.67;100.00
596;BME280;19946;49.306;11.350;2023-04-15T02:56:28;95276.19;;;3.44;100.00
596;BME280;19946;49.306;11.350;2023-04-15T02:59:30;95265.25;;;3.42;100.00
596;BME280;19946;49.306;11.350;2023-04-15T03:02:35;95259.41;;;3.40;100.00
596;BME280;19946;49.306;11.350;2023-04-15T03:09:06;95266.66;;;3.35;100.00
596;BME280;19946;49.306;11.350;2023-04-15T03:28:36;95274.53;;;3.32;100.00
596;BME280;19946;49.306;11.350;2023-04-15T03:31:38;95204.47;;;2.88;100.00
596;BME280;19946;49.306;11.350;2023-04-15T03:34:40;95221.00;;;3.07;100.00
596;BME280;19946;49.306;11.350;2023-04-15T03:40:56;95137.59;;;2.48;100.00
596;BME280;19946;49.306;11.350;2023-04-15T03:47:15;95165.38;;;2.64;100.00
596;BME280;19946;49.306;11.350;2023-04-15T03:50:17;95232.25;;;2.93;100.00
596;BME280;19946;49.306;11.350;2023-04-15T03:53:20;95203.53;;;2.78;100.00
596;BME280;19946;49.306;11.350;2023-04-15T03:56:20;95239.59;;;2.98;100.00
596;BME280;19946;49.306;11.350;2023-04-15T03:59:21;95240.22;;;3.12;100.00
596;BME280;19946;49.306;11.350;2023-04-15T04:02:22;95277.53;;;3.26;100.00
596;BME280;19946;49.306;11.350;2023-04-15T04:05:22;95192.00;;;2.73;100.00
596;BME280;19946;49.306;11.350;2023-04-15T04:08:24;95133.97;;;2.40;100.00
596;BME280;19946;49.306;11.350;2023-04-15T04:11:26;95180.94;;;2.61;100.00
596;BME280;19946;49.306;11.350;2023-04-15T04:14:27;95234.59;;;2.96;100.00
596;BME280;19946;49.306;11.350;2023-04-15T04:17:29;95171.41;;;2.63;100.00
596;BME280;19946;49.306;11.350;2023-04-15T04:20:31;95250.88;;;3.06;100.00
596;BME280;19946;49.306;11.350;2023-04-15T04:23:31;95152.78;;;2.39;100.00
596;BME280;19946;49.306;11.350;2023-04-15T04:26:32;95242.13;;;2.86;100.00
596;BME280;19946;49.306;11.350;2023-04-15T04:29:32;95239.34;;;2.89;100.00
596;BME280;19946;49.306;11.350;2023-04-15T04:32:33;95201.06;;;2.66;100.00
596;BME280;19946;49.306;11.350;2023-04-15T04:35:34;95197.38;;;2.70;100.00
596;BME280;19946;49.306;11.350;2023-04-15T04:38:36;95149.44;;;2.49;100.00
596;BME280;19946;49.306;11.350;2023-04-15T04:41:37;95289.44;;;3.38;100.00
596;BME280;19946;49.306;11.350;2023-04-15T04:44:37;95226.22;;;3.05;100.00
596;BME280;19946;49.306;11.350;2023-04-15T04:47:38;95201.72;;;2.91;100.00
596;BME280;19946;49.306;11.350;2023-04-15T04:50:38;95266.75;;;3.22;100.00
596;BME280;19946;49.306;11.350;2023-04-15T04:53:43;95199.25;;;2.90;100.00
596;BME280;19946;49.306;11.350;2023-04-15T04:56:45;95199.16;;;2.91;100.00
596;BME280;19946;49.306;11.350;2023-04-15T04:59:46;95231.97;;;3.20;100.00
596;BME280;19946;49.306;11.350;2023-04-15T05:02:47;95248.84;;;3.22;100.00
596;BME280;19946;49.306;11.350;2023-04-15T05:05:47;95270.59;;;3.39;100.00
596;BME280;19946;49.306;11.350;2023-04-15T05:08:51;95195.78;;;3.02;100.00
596;BME280;19946;49.306;11.350;2023-04-15T05:11:53;95281.66;;;3.62;100.00
596;BME280;19946;49.306;11.350;2023-04-15T05:14:53;95194.28;;;3.00;100.00
596;BME280;19946;49.306;11.350;2023-04-15T05:17:54;95197.06;;;2.97;100.00
596;BME280;19946;49.306;11.350;2023-04-15T05:20:55;95294.22;;;3.54;100.00
596;BME280;19946;49.306;11.350;2023-04-15T05:23:57;95286.19;;;3.58;100.00
596;BME280;19946;49.306;11.350;2023-04-15T05:26:57;95259.75;;;3.47;100.00
596;BME280;19946;49.306;11.350;2023-04-15T05:29:58;95243.59;;;3.24;100.00
596;BME280;19946;49.306;11.350;2023-04-15T05:33:00;95300.38;;;3.62;100.00
596;BME280;19946;49.306;11.350;2023-04-15T05:36:01;95214.34;;;2.93;100.00
596;BME280;19946;49.306;11.350;2023-04-15T05:39:06;95269.78;;;3.39;100.00
596;BME280;19946;49.306;11.350;2023-04-15T05:42:09;95228.78;;;3.05;100.00
596;BME280;19946;49.306;11.350;2023-04-15T05:45:10;95257.53;;;3.20;100.00
596;BME280;19946;49.306;11.350;2023-04-15T05:48:11;95207.47;;;2.82;100.00
596;BME280;19946;49.306;11.350;2023-04-15T05:51:17;95233.69;;;3.08;100.00
596;BME280;19946;49.306;11.350;2023-04-15T05:54:17;95270.25;;;3.44;100.00
596;BME280;19946;49.306;11.350;2023-04-15T05:57:18;95200.09;;;3.02;100.00
596;BME280;19946;49.306;11.350;2023-04-15T06:00:18;95250.81;;;3.41;100.00
596;BME280;19946;49.306;11.350;2023-04-15T06:03:19;95281.31;;;3.66;100.00
596;BME280;19946;49.306;11.350;2023-04-15T06:06:23;95287.47;;;3.64;100.00
596;BME280;19946;49.306;11.350;2023-04-15T06:09:25;95243.59;;;3.46;100.00
596;BME280;19946;49.306;11.350;2023-04-15T06:15:45;95312.38;;;3.84;100.00
596;BME280;19946;49.306;11.350;2023-04-15T06:49:07;95325.06;;;4.19;100.00
596;BME280;19946;49.306;11.350;2023-04-15T06:52:09;95320.25;;;4.26;100.00
596;BME280;19946;49.306;11.350;2023-04-15T06:55:10;95326.69;;;4.31;100.00
596;BME280;19946;49.306;11.350;2023-04-15T07:01:34;95323.75;;;4.36;100.00
596;BME280;19946;49.306;11.350;2023-04-15T07:18:20;95259.69;;;4.25;100.00
596;BME280;19946;49.306;11.350;2023-04-15T07:34:35;95235.84;;;4.13;100.00
596;BME280;19946;49.306;11.350;2023-04-15T07:38:01;95317.47;;;4.72;100.00
596;BME280;19946;49.306;11.350;2023-04-15T07:41:02;95325.06;;;4.73;100.00
596;BME280;19946;49.306;11.350;2023-04-15T07:44:06;95255.59;;;4.33;100.00
596;BME280;19946;49.306;11.350;2023-04-15T07:47:08;95197.31;;;4.03;100.00
596;BME280;19946;49.306;11.350;2023-04-15T07:50:08;95320.50;;;4.98;100.00
596;BME280;19946;49.306;11.350;2023-04-15T07:53:10;95319.66;;;4.76;100.00
596;BME280;19946;49.306;11.350;2023-04-15T08:09:20;95254.28;;;4.50;100.00
596;BME280;19946;49.306;11.350;2023-04-15T08:12:29;95251.44;;;4.32;100.00
596;BME280;19946;49.306;11.350;2023-04-15T08:15:31;95316.53;;;4.73;100.00
596;BME280;19946;49.306;11.350;2023-04-15T08:21:43;95253.97;;;4.32;100.00
596;BME280;19946;49.306;11.350;2023-04-15T08:24:45;95307.50;;;4.58;100.00
596;BME280;19946;49.306;11.350;2023-04-15T08:27:54;95280.25;;;4.46;100.00
596;BME280;19946;49.306;11.350;2023-04-15T08:47:52;95260.63;;;4.24;100.00
596;BME280;19946;49.306;11.350;2023-04-15T08:50:58;95271.94;;;4.32;100.00
596;BME280;19946;49.306;11.350;2023-04-15T08:54:15;95245.16;;;4.14;100.00
596;BME280;19946;49.306;11.350;2023-04-15T08:57:25;95280.78;;;4.28;100.00
596;BME280;19946;49.306;11.350;2023-04-15T09:10:26;95311.09;;;4.55;100.00
596;BME280;19946;49.306;11.350;2023-04-15T09:13:28;95257.94;;;4.25;100.00
596;BME280;19946;49.306;11.350;2023-04-15T09:16:29;95279.03;;;4.29;100.00
596;BME280;19946;49.306;11.350;2023-04-15T09:19:33;95307.63;;;4.45;100.00
596;BME280;19946;49.306;11.350;2023-04-15T09:22:35;95367.44;;;4.77;100.00
596;BME280;19946;49.306;11.350;2023-04-15T09:25:39;95239.63;;;3.98;100.00
596;BME280;19946;49.306;11.350;2023-04-15T09:45:10;95387.97;;;4.77;100.00
596;BME280;19946;49.306;11.350;2023-04-15T09:48:23;95295.94;;;4.31;100.00
596;BME280;19946;49.306;11.350;2023-04-15T09:51:34;95382.53;;;5.03;100.00
596;BME280;19946;49.306;11.350;2023-04-15T09:54:37;95261.84;;;3.97;100.00
596;BME280;19946;49.306;11.350;2023-04-15T09:57:38;95311.66;;;4.27;100.00
596;BME280;19946;49.306;11.350;2023-04-15T10:00:47;95393.44;;;4.84;100.00
596;BME280;19946;49.306;11.350;2023-04-15T10:03:50;95392.84;;;4.92;100.00
596;BME280;19946;49.306;11.350;2023-04-15T10:06:52;95368.03;;;4.81;100.00
596;BME280;19946;49.306;11.350;2023-04-15T10:49:31;95268.16;;;3.49;100.00
596;BME280;19946;49.306;11.350;2023-04-15T10:52:32;95409.94;;;4.37;100.00
596;BME280;19946;49.306;11.350;2023-04-15T11:09:29;95417.63;;;4.26;100.00
596;BME280;19946;49.306;11.350;2023-04-15T11:12:36;95289.22;;;3.63;100.00
596;BME280;19946;49.306;11.350;2023-04-15T11:48:44;95316.44;;;4.20;100.00
596;BME280;19946;49.306;11.350;2023-04-15T13:07:22;95407.72;;;4.98;100.00
596;BME280;19946;49.306;11.350;2023-04-15T13:10:23;95393.66;;;4.92;100.00
596;BME280;19946;49.306;11.350;2023-04-15T13:13:24;95413.41;;;5.12;100.00
596;BME280;19946;49.306;11.350;2023-04-15T13:16:24;95409.94;;;5.02;100.00
596;BME280;19946;49.306;11.350;2023-04-15T13:19:28;95526.94;;;5.59;100.00
596;BME280;19946;49.306;11.350;2023-04-15T13:22:29;95432.00;;;5.05;100.00
596;BME280;19946;49.306;11.350;2023-04-15T13:25:31;95521.78;;;5.59;100.00
596;BME280;19946;49.306;11.350;2023-04-15T13:28:31;95360.41;;;4.48;100.00
596;BME280;19946;49.306;11.350;2023-04-15T13:31:33;95505.97;;;5.32;100.00
596;BME280;19946;49.306;11.350;2023-04-15T13:34:36;95459.00;;;5.20;100.00
596;BME280;19946;49.306;11.350;2023-04-15T13:37:40;95420.84;;;4.84;100.00
596;BME280;19946;49.306;11.350;2023-04-15T13:47:22;95542.13;;;5.83;100.00
596;BME280;19946;49.306;11.350;2023-04-15T13:50:59;95494.28;;;5.50;100.00
596;BME280;19946;49.306;11.350;2023-04-15T13:54:02;95459.19;;;5.39;100.00
596;BME280;19946;49.306;11.350;2023-04-15T13:57:04;95500.00;;;5.74;100.00
596;BME280;19946;49.306;11.350;2023-04-15T14:00:06;95555.81;;;6.15;100.00
596;BME280;19946;49.306;11.350;2023-04-15T14:03:06;95538.13;;;6.22;100.00
596;BME280;19946;49.306;11.350;2023-04-15T14:25:50;95568.31;;;6.50;100.00
596;BME280;19946;49.306;11.350;2023-04-15T14:28:51;95495.94;;;5.72;100.00
596;BME280;19946;49.306;11.350;2023-04-15T14:31:56;95587.84;;;6.11;100.00
596;BME280;19946;49.306;11.350;2023-04-15T14:44:55;95550.41;;;5.86;100.00
596;BME280;19946;49.306;11.350;2023-04-15T14:47:57;95527.34;;;5.64;100.00
596;BME280;19946;49.306;11.350;2023-04-15T15:07:28;95623.22;;;5.65;100.00
596;BME280;19946;49.306;11.350;2023-04-15T15:20:21;95497.31;;;4.67;100.00
596;BME280;19946;49.306;11.350;2023-04-15T15:23:45;95637.56;;;5.67;100.00
596;BME280;19946;49.306;11.350;2023-04-15T15:26:50;95573.22;;;5.14;100.00
596;BME280;19946;49.306;11.350;2023-04-15T15:29:51;95640.84;;;5.58;100.00
596;BME280;19946;49.306;11.350;2023-04-15T15:32:52;95569.03;;;5.02;100.00
596;BME280;19946;49.306;11.350;2023-04-15T15:35:53;95579.88;;;5.06;100.00
596;BME280;19946;49.306;11.350;2023-04-15T15:38:53;95658.50;;;5.52;100.00
596;BME280;19946;49.306;11.350;2023-04-15T15:41:55;95557.03;;;4.81;100.00
596;BME280;19946;49.306;11.350;2023-04-15T15:45:00;95552.00;;;4.68;100.00
596;BME280;19946;49.306;11.350;2023-04-15T15:51:17;95595.84;;;4.87;100.00
596;BME280;19946;49.306;11.350;2023-04-15T15:54:23;95534.28;;;4.43;100.00
596;BME280;19946;49.306;11.350;2023-04-15T15:57:32;95680.09;;;5.27;100.00
596;BME280;19946;49.306;11.350;2023-04-15T16:00:33;95672.03;;;5.31;100.00
596;BME280;19946;49.306;11.350;2023-04-15T16:13:40;95626.38;;;4.79;100.00
596;BME280;19946;49.306;11.350;2023-04-15T16:16:42;95576.81;;;4.56;100.00
596;BME280;19946;49.306;11.350;2023-04-15T16:19:43;95610.44;;;4.75;100.00
596;BME280;19946;49.306;11.350;2023-04-15T16:22:43;95626.59;;;4.76;100.00
596;BME280;19946;49.306;11.350;2023-04-15T16:25:44;95686.16;;;5.14;100.00
596;BME280;19946;49.306;11.350;2023-04-15T16:28:48;95715.66;;;5.20;100.00
596;BME280;19946;49.306;11.350;2023-04-15T16:31:48;95603.03;;;4.49;100.00
596;BME280;19946;49.306;11.350;2023-04-15T16:34:52;95591.34;;;4.45;100.00
596;BME280;19946;49.306;11.350;2023-04-15T16:37:53;95611.22;;;4.54;100.00
596;BME280;19946;49.306;11.350;2023-04-15T16:44:12;95642.13;;;4.74;100.00
596;BME280;19946;49.306;11.350;2023-04-15T16:50:48;95727.22;;;5.26;100.00
596;BME280;19946;49.306;11.350;2023-04-15T16:57:36;95627.66;;;4.62;100.00
596;BME280;19946;49.306;11.350;2023-04-15T17:00:37;95662.53;;;4.87;100.00
596;BME280;19946;49.306;11.350;2023-04-15T17:03:38;95666.72;;;4.77;100.00
596;BME280;19946;49.306;11.350;2023-04-15T17:06:44;95685.88;;;4.84;100.00
596;BME280;19946;49.306;11.350;2023-04-15T17:09:48;95757.69;;;5.19;100.00
596;BME280;19946;49.306;11.350;2023-04-15T17:12:49;95724.03;;;5.00;100.00
596;BME280;19946;49.306;11.350;2023-04-15T17:15:57;95689.13;;;4.75;100.00
596;BME280;19946;49.306;11.350;2023-04-15T17:18:58;95678.22;;;4.60;100.00
596;BME280;19946;49.306;11.350;2023-04-15T17:26:39;95765.47;;;5.06;100.00
596;BME280;19946;49.306;11.350;2023-04-15T17:36:37;95711.56;;;4.60;100.00
596;BME280;19946;49.306;11.350;2023-04-15T17:39:38;95740.41;;;4.75;100.00
596;BME280;19946;49.306;11.350;2023-04-15T17:42:41;95744.94;;;4.71;100.00
596;BME280;19946;49.306;11.350;2023-04-15T17:45:41;95725.19;;;4.61;100.00
596;BME280;19946;49.306;11.350;2023-04-15T17:48:45;95774.63;;;4.87;100.00
596;BME280;19946;49.306;11.350;2023-04-15T17:55:04;95733.59;;;4.63;100.00
596;BME280;19946;49.306;11.350;2023-04-15T17:58:06;95762.06;;;4.71;100.00
596;BME280;19946;49.306;11.350;2023-04-15T18:07:43;95775.97;;;4.80;100.00
596;BME280;19946;49.306;11.350;2023-04-15T18:10:44;95713.16;;;4.26;100.00
596;BME280;19946;49.306;11.350;2023-04-15T18:13:45;95760.38;;;4.59;100.00
596;BME280;19946;49.306;11.350;2023-04-15T18:20:04;95769.66;;;4.49;100.00
596;BME280;19946;49.306;11.350;2023-04-15T18:23:05;95841.34;;;4.98;100.00
596;BME280;19946;49.306;11.350;2023-04-15T18:26:06;95785.81;;;4.62;100.00
596;BME280;19946;49.306;11.350;2023-04-15T18:29:06;95768.25;;;4.45;100.00
596;BME280;19946;49.306;11.350;2023-04-15T18:32:10;95842.50;;;4.94;100.00
596;BME280;19946;49.306;11.350;2023-04-15T18:35:12;95855.13;;;4.97;100.00
596;BME280;19946;49.306;11.350;2023-04-15T18:38:12;95847.75;;;4.92;100.00
596;BME280;19946;49.306;11.350;2023-04-15T18:44:34;95861.28;;;4.94;100.00
596;BME280;19946;49.306;11.350;2023-04-15T18:50:54;95871.53;;;4.94;100.00
596;BME280;19946;49.306;11.350;2023-04-15T18:53:59;95840.72;;;4.83;100.00
596;BME280;19946;49.306;11.350;2023-04-15T19:00:16;95832.78;;;4.62;100.00
596;BME280;19946;49.306;11.350;2023-04-15T19:03:17;95862.88;;;4.84;100.00
596;BME280;19946;49.306;11.350;2023-04-15T19:06:19;95898.19;;;5.04;100.00
596;BME280;19946;49.306;11.350;2023-04-15T19:09:20;95857.44;;;4.76;100.00
596;BME280;19946;49.306;11.350;2023-04-15T19:12:22;95891.47;;;4.91;100.00
596;BME280;19946;49.306;11.350;2023-04-15T19:15:24;95903.53;;;5.01;100.00
596;BME280;19946;49.306;11.350;2023-04-15T19:18:25;95851.47;;;4.64;100.00
596;BME280;19946;49.306;11.350;2023-04-15T19:21:28;95914.97;;;5.08;100.00
596;BME280;19946;49.306;11.350;2023-04-15T19:24:31;95895.47;;;4.95;100.00
596;BME280;19946;49.306;11.350;2023-04-15T19:30:57;95855.25;;;4.59;100.00
596;BME280;19946;49.306;11.350;2023-04-15T19:37:15;95929.19;;;5.01;100.00
596;BME280;19946;49.306;11.350;2023-04-15T19:40:17;95932.09;;;4.97;100.00
596;BME280;19946;49.306;11.350;2023-04-15T19:43:17;95836.78;;;4.43;100.00
596;BME280;19946;49.306;11.350;2023-04-15T19:46:18;95862.25;;;4.57;100.00
596;BME280;19946;49.306;11.350;2023-04-15T19:49:19;95878.25;;;4.60;100.00
596;BME280;19946;49.306;11.350;2023-04-15T19:52:22;95935.34;;;4.99;100.00
596;BME280;19946;49.306;11.350;2023-04-15T19:55:22;95913.25;;;4.85;100.00
596;BME280;19946;49.306;11.350;2023-04-15T19:58:23;95933.50;;;5.01;100.00
596;BME280;19946;49.306;11.350;2023-04-15T20:01:23;95866.44;;;4.58;100.00
596;BME280;19946;49.306;11.350;2023-04-15T20:04:24;95900.13;;;4.77;100.00
596;BME280;19946;49.306;11.350;2023-04-15T20:07:25;95930.88;;;4.90;100.00
596;BME280;19946;49.306;11.350;2023-04-15T20:10:27;95940.88;;;5.05;100.00
596;BME280;19946;49.306;11.350;2023-04-15T20:13:27;95944.59;;;5.01;100.00
596;BME280;19946;49.306;11.350;2023-04-15T20:16:30;95848.75;;;4.42;100.00
596;BME280;19946;49.306;11.350;2023-04-15T20:19:34;95945.31;;;5.03;100.00
596;BME280;19946;49.306;11.350;2023-04-15T20:22:51;95919.19;;;4.86;100.00
596;BME280;19946;49.306;11.350;2023-04-15T20:25:52;95951.88;;;5.07;100.00
596;BME280;19946;49.306;11.350;2023-04-15T20:29:20;95890.84;;;4.63;100.00
596;BME280;19946;49.306;11.350;2023-04-15T20:32:36;95930.06;;;4.89;100.00
596;BME280;19946;49.306;11.350;2023-04-15T20:35:45;95873.75;;;4.51;100.00
596;BME280;19946;49.306;11.350;2023-04-15T20:39:00;95968.19;;;5.06;100.00
596;BME280;19946;49.306;11.350;2023-04-15T20:42:17;95962.94;;;5.08;100.00
596;BME280;19946;49.306;11.350;2023-04-15T20:45:46;95899.13;;;4.67;100.00
596;BME280;19946;49.306;11.350;2023-04-15T20:48:59;95875.16;;;4.55;100.00
596;BME280;19946;49.306;11.350;2023-04-15T20:53:10;95870.19;;;4.41;100.00
596;BME280;19946;49.306;11.350;2023-04-15T20:56:23;95878.16;;;4.49;100.00
596;BME280;19946;49.306;11.350;2023-04-15T20:59:29;95985.91;;;5.09;100.00
596;BME280;19946;49.306;11.350;2023-04-15T21:02:40;95905.63;;;4.60;100.00
596;BME280;19946;49.306;11.350;2023-04-15T21:06:29;95988.28;;;5.12;100.00
596;BME280;19946;49.306;11.350;2023-04-15T21:09:42;95976.81;;;5.05;100.00
596;BME280;19946;49.306;11.350;2023-04-15T21:12:58;95959.09;;;4.90;100.00
596;BME280;19946;49.306;11.350;2023-04-15T21:16:49;95999.56;;;5.10;100.00
596;BME280;19946;49.306;11.350;2023-04-15T21:19:58;95969.44;;;4.88;100.00
596;BME280;19946;49.306;11.350;2023-04-15T21:23:06;95997.25;;;5.07;100.00
596;BME280;19946;49.306;11.350;2023-04-15T21:26:33;95944.56;;;4.77;100.00
596;BME280;19946;49.306;11.350;2023-04-15T21:29:51;96003.69;;;5.12;100.00
596;BME280;19946;49.306;11.350;2023-04-15T21:33:30;95955.63;;;4.78;100.00
596;BME280;19946;49.306;11.350;2023-04-15T21:36:33;95976.31;;;4.88;100.00
596;BME280;19946;49.306;11.350;2023-04-15T21:39:40;96014.97;;;5.10;100.00
596;BME280;19946;49.306;11.350;2023-04-15T21:42:51;95950.22;;;4.70;100.00
596;BME280;19946;49.306;11.350;2023-04-15T21:45:55;96032.81;;;5.11;100.00
596;BME280;19946;49.306;11.350;2023-04-15T21:49:03;96020.09;;;5.10;100.00
596;BME280;19946;49.306;11.350;2023-04-15T21:52:20;95989.06;;;4.89;100.00
596;BME280;19946;49.306;11.350;2023-04-15T21:55:26;96026.38;;;5.19;100.00
596;BME280;19946;49.306;11.350;2023-04-15T21:58:29;96016.03;;;5.07;100.00
596;BME280;19946;49.306;11.350;2023-04-15T22:01:44;96029.34;;;5.12;100.00
596;BME280;19946;49.306;11.350;2023-04-15T22:05:11;96025.84;;;5.13;100.00
596;BME280;19946;49.306;11.350;2023-04-15T22:08:39;96030.78;;;5.17;100.00
596;BME280;19946;49.306;11.350;2023-04-15T22:11:56;96032.94;;;5.10;100.00
596;BME280;19946;49.306;11.350;2023-04-15T22:15:02;96044.94;;;5.09;100.00
596;BME280;19946;49.306;11.350;2023-04-15T22:18:12;96044.94;;;5.09;100.00
596;BME280;19946;49.306;11.350;2023-04-15T22:21:15;96030.47;;;5.08;100.00
596;BME280;19946;49.306;11.350;2023-04-15T22:24:22;96058.91;;;5.18;100.00
596;BME280;19946;49.306;11.350;2023-04-15T22:27:30;96052.84;;;5.19;100.00
596;BME280;19946;49.306;11.350;2023-04-15T22:30:55;96057.53;;;5.25;100.00
596;BME280;19946;49.306;11.350;2023-04-15T22:33:57;96055.53;;;5.18;100.00
596;BME280;19946;49.306;11.350;2023-04-15T22:36:59;96062.69;;;5.25;100.00
596;BME280;19946;49.306;11.350;2023-04-15T22:40:00;96068.72;;;5.37;100.00
596;BME280;19946;49.306;11.350;2023-04-15T22:43:02;96064.22;;;5.28;100.00
596;BME280;19946;49.306;11.350;2023-04-15T22:46:03;96050.78;;;5.11;100.00
596;BME280;19946;49.306;11.350;2023-04-15T22:49:08;96083.50;;;5.33;100.00
596;BME280;19946;49.306;11.350;2023-04-15T22:52:09;96060.97;;;5.00;100.00
596;BME280;19946;49.306;11.350;2023-04-15T22:55:18;96061.16;;;5.10;100.00
596;BME280;19946;49.306;11.350;2023-04-15T22:58:20;96083.97;;;5.14;100.00
596;BME280;19946;49.306;11.350;2023-04-15T23:01:25;96091.47;;;5.18;100.00
596;BME280;19946;49.306;11.350;2023-04-15T23:04:47;96066.09;;;5.00;100.00
596;BME280;19946;49.306;11.350;2023-04-15T23:07:52;96064.78;;;5.07;100.00
596;BME280;19946;49.306;11.350;2023-04-15T23:10:54;96048.88;;;5.02;100.00
596;BME280;19946;49.306;11.350;2023-04-15T23:13:55;96086.22;;;5.19;100.00
596;BME280;19946;49.306;11.350;2023-04-15T23:16:57;96093.56;;;5.36;100.00
596;BME280;19946;49.306;11.350;2023-04-15T23:19:58;96095.84;;;5.28;100.00
596;BME280;19946;49.306;11.350;2023-04-15T23:22:59;96093.38;;;5.27;100.00
596;BME280;19946;49.306;11.350;2023-04-15T23:26:05;96071.03;;;5.03;100.00
596;BME280;19946;49.306;11.350;2023-04-15T23:29:07;96072.16;;;5.12;100.00
596;BME280;19946;49.306;11.350;2023-04-15T23:32:09;96091.41;;;5.30;100.00
596;BME280;19946;49.306;11.350;2023-04-15T23:35:11;96091.81;;;5.37;100.00
596;BME280;19946;49.306;11.350;2023-04-15T23:38:15;96098.25;;;5.42;100.00
596;BME280;19946;49.306;11.350;2023-04-15T23:41:17;96087.81;;;5.33;100.00
596;BME280;19946;49.306;11.350;2023-04-15T23:44:23;96105.88;;;5.31;100.00
596;BME280;19946;49.306;11.350;2023-04-15T23:47:25;96073.91;;;5.11;100.00
596;BME280;19946;49.306;11.350;2023-04-15T23:50:26;96083.13;;;5.27;100.00
596;BME280;19946;49.306;11.350;2023-04-15T23:53:30;96104.84;;;5.34;100.00
596;BME280;19946;49.306;11.350;2023-04-15T23:56:34;96099.63;;;5.35;100.00
596;BME280;19946;49.306;11.350;2023-04-15T23:59:35;96083.97;;;5.14;100.00
